KENV/ENV METAR and TAF weather

Enter ICAO airport designator
Station Type Date Time Source
KENV METAR 2018/12/11 19:56 UTC NOAA

KENV 111956Z AUTO 16005KT 10SM FEW005 OVC010 M02/M03 A3032 RMK AO2 SLP305 T10171033 FZRANO


Station Type Date Time Source
KENV Decoded METAR 2018/12/11 19:56 UTC NOAA

Wendover / Air Force Auxillary Field, UT, United States (KENV) 40-44N 114-02W 1292M
Dec 11, 2018 - 02:56 PM EST / 2018.12.11 1956 UTC
Wind: from the SSE (160 degrees) at 6 MPH (5 KT):0
Visibility: 10 mile(s):0
Sky conditions: overcast
Temperature: 28.9 F (-1.7 C)
Windchill: 23 F (-5 C):1
Dew Point: 26.1 F (-3.3 C)
Relative Humidity: 88%
Pressure (altimeter): 30.32 in. Hg (1026 hPa)
ob: KENV 111956Z AUTO 16005KT 10SM FEW005 OVC010 M02/M03 A3032 RMK AO2 SLP305 T10171033 FZRANO
cycle: 20

Station Type Date Time Source
KENV TAF 2018/12/11 19:10 UTC NOAA

TAF
AMD KENV 111908Z 1119/1218 26006KT 6SM BR OVC002
FM112000 VRB04KT 6SM BR FEW004 FEW080
FM120300 18005KT 6SM BR BKN010 OVC080
FM121400 32011KT P6SM VCSH SCT015 OVC080


Example: see airport list